Keiyumaru — JL6541 — position and weather

sailwx.info

Track history (hours):
 
Tides and Currents Weather Stations Pressure Air Temp Water Temp Dewpoint Dewpoint Depression Visibility Wind Speed Wind Dir Waves Ship Positions

Keiyumaru

Last reported at 2018-Feb-21 18:26 UTC. Time now 2018-Feb-21 19:10 UTC.
Position N 33°52' E 134°51'.

Length 81 m; draft 4.8 m.

Type: Cargo ship. MMSI: 431500561.

Date/timePositionNaut miles runAvg speedWind from/ knotsBaromVisibWave heightAir tempDewpointWater temp
2018-Feb-21 18:26N 33°52' E 134°51'613.0
2018-Feb-21 17:59N 33°57' E 134°53'511.0
2018-Feb-21 17:30N 34°02' E 134°55'612.6
2018-Feb-21 17:01N 34°08' E 134°57'612.4
2018-Feb-21 16:31N 34°14' E 134°58'611.1
2018-Feb-21 16:01N 34°20' E 134°59'612.1
2018-Feb-21 15:30N 34°26' E 135°00'611.8
2018-Feb-21 15:01N 34°31' E 135°02'5 9.8
2018-Feb-21 14:30N 34°36' E 135°02'4 9.0
2018-Feb-21 14:00N 34°36' E 134°57'510.8
2018-Feb-21 13:30N 34°34' E 134°51'611.6
2018-Feb-21 13:01N 34°32' E 134°45'611.8
2018-Feb-21 12:30N 34°29' E 134°38'612.0
2018-Feb-21 12:00N 34°27' E 134°31'611.9
2018-Feb-21 11:31N 34°25' E 134°25'611.4
2018-Feb-21 11:00N 34°24' E 134°18'13 0.5
2018-Feb-20 11:09N 34°27' E 134°03'1712.1
2018-Feb-20 09:44N 34°23' E 134°23'312.2
2018-Feb-20 09:30N 34°22' E 134°26'612.2
2018-Feb-20 09:00N 34°19' E 134°33'612.7
2018-Feb-20 08:30N 34°15' E 134°39'6 9.7
2018-Feb-20 07:54N 34°10' E 134°43'511.9
2018-Feb-20 07:30N 34°06' E 134°46'612.1
2018-Feb-20 07:00N 34°01' E 134°49'612.0
2018-Feb-20 06:29N 33°56' E 134°54'612.1
2018-Feb-20 06:00N 33°51' E 134°58'611.8
2018-Feb-20 05:30N 33°47' E 135°04'86 9.8
2018-Feb-19 20:45N 34°08' E 136°44'7312.0
2018-Feb-19 14:41N 34°34' E 138°06'711.0
2018-Feb-19 14:04N 34°33' E 138°15'211.5
2018-Feb-19 13:54N 34°34' E 138°17'511.6
2018-Feb-19 13:27N 34°34' E 138°23'611.8
2018-Feb-19 12:57N 34°35' E 138°30'611.5
2018-Feb-19 12:27N 34°36' E 138°37'611.9
2018-Feb-19 11:58N 34°36' E 138°44'811.5
2018-Feb-19 11:16N 34°36' E 138°54'311.7
2018-Feb-19 11:00N 34°37' E 138°58'613.1
2018-Feb-19 10:30N 34°41' E 139°03'814.0
2018-Feb-19 09:56N 34°48' E 139°08'512.9
2018-Feb-19 09:30N 34°52' E 139°13'612.4
2018-Feb-19 09:00N 34°55' E 139°19'712.3
2018-Feb-19 08:25N 34°59' E 139°27'512.0
2018-Feb-19 08:00N 35°02' E 139°32'612.2
2018-Feb-19 07:30N 35°05' E 139°38'612.7
2018-Feb-19 07:00N 35°10' E 139°44'611.8
2018-Feb-19 06:30N 35°15' E 139°46'611.8
2018-Feb-19 06:00N 35°20' E 139°42'611.1
2018-Feb-19 05:30N 35°25' E 139°44'612.6
2018-Feb-19 05:00N 35°29' E 139°50'612.0
2018-Feb-19 04:29N 35°35' E 139°50'3 5.3
2018-Feb-19 04:00N 35°37' E 139°48'0 0.0
2018-Feb-19 03:30N 35°37' E 139°48'0 0.0
2018-Feb-19 02:54N 35°37' E 139°48'0 0.0
2018-Feb-19 02:30N 35°37' E 139°48'0 0.0
2018-Feb-19 02:00N 35°37' E 139°48'0 0.0
2018-Feb-19 01:30N 35°37' E 139°48'0 0.0
2018-Feb-19 01:00N 35°37' E 139°48'0 0.0
2018-Feb-19 00:24N 35°37' E 139°48'0 0.0
2018-Feb-18 23:57N 35°37' E 139°48'0 0.0
2018-Feb-18 23:24N 35°37' E 139°48'0 0.0
2018-Feb-18 23:00N 35°37' E 139°48'0 0.0
2018-Feb-18 22:27N 35°37' E 139°48'0 0.0
2018-Feb-18 22:00N 35°37' E 139°48'4 6.8
2018-Feb-18 21:29N 35°35' E 139°52'0 0.6
2018-Feb-18 20:59N 35°35' E 139°52'0 0.0
2018-Feb-18 20:29N 35°35' E 139°52'0 0.0
2018-Feb-18 19:59N 35°35' E 139°52'0 0.0
2018-Feb-18 19:29N 35°35' E 139°52'0 0.0
2018-Feb-18 18:56N 35°35' E 139°52'0 0.0
2018-Feb-18 18:26N 35°35' E 139°52'0 0.0
2018-Feb-18 17:59N 35°35' E 139°52'0 0.0
2018-Feb-18 17:29N 35°35' E 139°52'0 0.1
2018-Feb-18 16:59N 35°35' E 139°52'0 0.0
2018-Feb-18 16:29N 35°35' E 139°52'0 0.0
2018-Feb-18 15:59N 35°35' E 139°52'0 0.0
2018-Feb-18 15:29N 35°35' E 139°52'0 0.0
2018-Feb-18 14:59N 35°35' E 139°52'0 0.0
2018-Feb-18 14:29N 35°35' E 139°52'0 0.0
2018-Feb-18 13:59N 35°35' E 139°52'0 0.0
2018-Feb-18 13:29N 35°35' E 139°52'0 0.0
2018-Feb-18 12:59N 35°35' E 139°52'0 0.0
2018-Feb-18 12:29N 35°35' E 139°52'0 0.0
2018-Feb-18 11:59N 35°35' E 139°52'0 0.0
2018-Feb-18 11:29N 35°35' E 139°52'0 0.0
2018-Feb-18 10:59N 35°35' E 139°52'0 0.0
2018-Feb-18 10:29N 35°35' E 139°52'0 0.1
2018-Feb-18 09:59N 35°35' E 139°52'0 0.0
2018-Feb-18 09:29N 35°35' E 139°52'0 0.1
2018-Feb-18 08:59N 35°35' E 139°52'0 0.0
2018-Feb-18 08:29N 35°35' E 139°52'0 0.0
2018-Feb-18 07:56N 35°35' E 139°52'0 0.0
2018-Feb-18 07:29N 35°35' E 139°52'0 0.0
2018-Feb-18 06:59N 35°35' E 139°52'0 0.0
2018-Feb-18 06:28N 35°35' E 139°52'0 0.0
2018-Feb-18 05:58N 35°35' E 139°52'0 0.0
2018-Feb-18 05:26N 35°35' E 139°52'0 0.0
2018-Feb-18 04:58N 35°35' E 139°52'0 0.0
2018-Feb-18 04:28N 35°35' E 139°52'0 0.0
2018-Feb-18 03:58N 35°35' E 139°52'0 0.0
2018-Feb-18 03:28N 35°35' E 139°52'0 0.0
2018-Feb-18 02:55N 35°35' E 139°52'0 0.0
2018-Feb-18 02:28N 35°35' E 139°52'0 0.0
2018-Feb-18 01:55N 35°35' E 139°52'0 0.0
2018-Feb-18 01:28N 35°35' E 139°52'0 0.0
2018-Feb-18 00:58N 35°35' E 139°52'0 0.0
2018-Feb-18 00:25N 35°35' E 139°52'0 0.0
2018-Feb-17 23:58N 35°35' E 139°52'0 0.0
2018-Feb-17 23:28N 35°35' E 139°52'0 0.0
2018-Feb-17 22:58N 35°35' E 139°52'0 0.0
2018-Feb-17 22:28N 35°35' E 139°52'0 0.0
2018-Feb-17 21:58N 35°35' E 139°52'0 0.0
2018-Feb-17 21:28N 35°35' E 139°52'0 0.0
2018-Feb-17 20:58N 35°35' E 139°52'0 0.0
2018-Feb-17 20:28N 35°35' E 139°52'0 0.0
2018-Feb-17 19:55N 35°35' E 139°52'0 0.0
2018-Feb-17 19:28N 35°35' E 139°52'0 0.0
2018-Feb-17 18:58N 35°35' E 139°52'0 0.0
2018-Feb-17 18:28N 35°35' E 139°52'0 0.0
2018-Feb-17 17:55N 35°35' E 139°52'0 0.0
2018-Feb-17 17:28N 35°35' E 139°52'0 0.0
2018-Feb-17 16:58N 35°35' E 139°52'0 0.0
2018-Feb-17 16:28N 35°35' E 139°52'0 0.1
2018-Feb-17 15:58N 35°35' E 139°52'0 0.0
2018-Feb-17 15:28N 35°35' E 139°52'0 0.1
2018-Feb-17 14:58N 35°35' E 139°52'0 0.0
2018-Feb-17 14:28N 35°35' E 139°52'0 0.1
2018-Feb-17 13:55N 35°35' E 139°52'0 0.0
2018-Feb-17 13:28N 35°35' E 139°52'0 0.1
2018-Feb-17 12:58N 35°35' E 139°52'0 0.0
2018-Feb-17 12:28N 35°35' E 139°52'0 0.0
2018-Feb-17 11:58N 35°35' E 139°52'0 0.0
2018-Feb-17 11:28N 35°35' E 139°52'0 0.0
2018-Feb-17 10:58N 35°35' E 139°52'0 0.1
2018-Feb-17 10:28N 35°35' E 139°52'0 0.1
2018-Feb-17 09:58N 35°35' E 139°52'0 0.1
2018-Feb-17 09:25N 35°35' E 139°52'0 0.1
2018-Feb-17 08:46N 35°35' E 139°52'0 0.0
2018-Feb-17 08:28N 35°35' E 139°52'0 0.0
2018-Feb-17 07:58N 35°35' E 139°52'0 0.0
2018-Feb-17 07:28N 35°35' E 139°52'0 0.0
2018-Feb-17 06:52N 35°35' E 139°52'0 0.0
2018-Feb-17 06:22N 35°35' E 139°52'0 0.0
2018-Feb-17 05:58N 35°35' E 139°52'0 0.1
2018-Feb-17 05:28N 35°35' E 139°52'0 0.1
2018-Feb-17 04:52N 35°35' E 139°52'0 0.1
2018-Feb-17 04:28N 35°35' E 139°52'0 0.1
2018-Feb-17 03:58N 35°35' E 139°52'0 0.2
2018-Feb-17 03:28N 35°35' E 139°52'2 5.2
2018-Feb-17 03:00N 35°33' E 139°53'612.5
2018-Feb-17 02:31N 35°27' E 139°51'611.3
2018-Feb-17 02:00N 35°22' E 139°53'0 0.8
2018-Feb-17 01:25N 35°21' E 139°54'0 0.0
2018-Feb-17 00:55N 35°21' E 139°54'0 0.0
2018-Feb-17 00:28N 35°21' E 139°54'0 0.0
2018-Feb-16 23:55N 35°21' E 139°54'0 0.0
2018-Feb-16 23:25N 35°21' E 139°54'0 0.0
2018-Feb-16 22:55N 35°21' E 139°54'0 0.0
2018-Feb-16 22:27N 35°21' E 139°54'2 4.0
2018-Feb-16 22:00N 35°22' E 139°52'2 4.3
2018-Feb-16 21:28N 35°24' E 139°50'0 0.0
2018-Feb-16 20:58N 35°24' E 139°50'0 0.0
2018-Feb-16 20:28N 35°24' E 139°50'0 0.0
2018-Feb-16 19:58N 35°24' E 139°50'0 0.0
2018-Feb-16 19:25N 35°24' E 139°50'0 0.0
2018-Feb-16 18:58N 35°24' E 139°50'0 0.0
2018-Feb-16 18:28N 35°24' E 139°50'0 0.0
2018-Feb-16 17:58N 35°24' E 139°50'0 0.0
2018-Feb-16 17:28N 35°24' E 139°50'0 0.0
2018-Feb-16 16:58N 35°24' E 139°50'0 0.0
2018-Feb-16 16:25N 35°24' E 139°50'0 0.0
2018-Feb-16 15:58N 35°24' E 139°50'0 0.0
2018-Feb-16 15:28N 35°24' E 139°50'0 0.0
2018-Feb-16 14:58N 35°24' E 139°50'0 0.0
2018-Feb-16 14:28N 35°24' E 139°50'0 0.0
2018-Feb-16 13:55N 35°24' E 139°50'0 0.0
2018-Feb-16 13:28N 35°24' E 139°50'0 0.1
2018-Feb-16 12:58N 35°24' E 139°50'0 0.0
2018-Feb-16 12:28N 35°24' E 139°50'0 0.0
2018-Feb-16 11:58N 35°24' E 139°50'0 0.0
2018-Feb-16 11:28N 35°24' E 139°50'0 0.0
2018-Feb-16 10:58N 35°24' E 139°50'0 0.0
2018-Feb-16 10:28N 35°24' E 139°50'0 0.0
2018-Feb-16 09:58N 35°24' E 139°50'0 0.0
2018-Feb-16 09:28N 35°24' E 139°50'0 0.0
2018-Feb-16 08:58N 35°24' E 139°50'0 0.0
2018-Feb-16 08:28N 35°24' E 139°50'0 0.0
2018-Feb-16 07:52N 35°24' E 139°50'0 0.0
2018-Feb-16 07:28N 35°24' E 139°50'0 0.0
2018-Feb-16 06:58N 35°24' E 139°50'0 0.0
2018-Feb-16 06:28N 35°24' E 139°50'0 0.0
2018-Feb-16 05:58N 35°24' E 139°50'0 0.0
2018-Feb-16 05:25N 35°24' E 139°50'0 0.0
2018-Feb-16 04:55N 35°24' E 139°50'0 0.1
2018-Feb-16 04:28N 35°24' E 139°50'0 0.0
2018-Feb-16 03:58N 35°24' E 139°50'0 0.0
2018-Feb-16 03:28N 35°24' E 139°50'0 0.0
2018-Feb-16 02:58N 35°24' E 139°50'0 0.0
2018-Feb-16 02:28N 35°24' E 139°50'2 4.6
2018-Feb-16 02:00N 35°24' E 139°48'611.1
2018-Feb-16 01:30N 35°19' E 139°44'611.2
2018-Feb-16 01:00N 35°14' E 139°47'611.4
2018-Feb-16 00:30N 35°08' E 139°47'611.6
2018-Feb-16 00:00N 35°02' E 139°45'810.6
2018-Feb-15 23:13N 34°54' E 139°46'310.7
2018-Feb-15 22:58N 34°53' E 139°49'1112.7
2018-Feb-15 22:06N 34°55' E 140°02'412.5
2018-Feb-15 21:48N 34°57' E 140°06'39511.2
2018-Feb-14 10:24N 41°27' E 141°30'512.2
2018-Feb-14 10:00N 41°31' E 141°27'612.1
2018-Feb-14 09:29N 41°36' E 141°23'611.4
2018-Feb-14 09:00N 41°41' E 141°19'612.0
2018-Feb-14 08:30N 41°46' E 141°15'5 0.1
2018-Feb-12 21:40N 41°50' E 141°12'311.7
2018-Feb-12 21:27N 41°47' E 141°13'511.6
2018-Feb-12 21:00N 41°44' E 141°08'611.5
2018-Feb-12 20:31N 41°41' E 141°01'713.8
2018-Feb-12 20:00N 41°42' E 140°52'612.6
2018-Feb-12 19:30N 41°43' E 140°44'611.2
2018-Feb-12 19:01N 41°48' E 140°39'0 0.7
2018-Feb-12 18:28N 41°48' E 140°39'0 0.0
2018-Feb-12 17:58N 41°48' E 140°39'0 0.0
2018-Feb-12 17:28N 41°48' E 140°39'0 0.0
2018-Feb-12 16:58N 41°48' E 140°39'0 0.0
2018-Feb-12 16:25N 41°48' E 140°39'0 0.0
2018-Feb-12 15:55N 41°48' E 140°39'0 0.0
2018-Feb-12 15:16N 41°48' E 140°39'0 0.0
2018-Feb-12 14:58N 41°48' E 140°39'0 0.0
2018-Feb-12 14:28N 41°48' E 140°39'0 0.0
2018-Feb-12 13:52N 41°48' E 140°39'0 0.0
2018-Feb-12 13:25N 41°48' E 140°39'0 0.0
2018-Feb-12 12:58N 41°48' E 140°39'0 0.0
2018-Feb-12 12:28N 41°48' E 140°39'0 0.0
2018-Feb-12 11:58N 41°48' E 140°39'0 0.0
2018-Feb-12 11:28N 41°48' E 140°39'0 0.0
2018-Feb-12 11:00N 41°48' E 140°39'2 4.9
2018-Feb-12 10:30N 41°48' E 140°42'1 2.2
2018-Feb-12 09:59N 41°47' E 140°43'0 0.0
2018-Feb-12 09:29N 41°47' E 140°43'0 0.0
2018-Feb-12 08:59N 41°47' E 140°43'0 0.0
2018-Feb-12 08:29N 41°47' E 140°43'0 0.0
2018-Feb-12 07:59N 41°47' E 140°43'0 0.0
2018-Feb-12 07:29N 41°47' E 140°43'0 0.0
2018-Feb-12 06:59N 41°47' E 140°43'0 0.0
2018-Feb-12 06:29N 41°47' E 140°43'0 0.0
2018-Feb-12 05:59N 41°47' E 140°43'0 0.0
2018-Feb-12 05:29N 41°47' E 140°43'0 0.0
2018-Feb-12 04:59N 41°47' E 140°43'0 0.0
2018-Feb-12 04:29N 41°47' E 140°43'0 0.0
2018-Feb-12 03:59N 41°47' E 140°43'0 0.0
2018-Feb-12 03:26N 41°47' E 140°43'0 0.0
2018-Feb-12 02:59N 41°47' E 140°43'0 0.0
2018-Feb-12 02:29N 41°47' E 140°43'0 0.0
2018-Feb-12 01:56N 41°47' E 140°43'0 0.0
2018-Feb-12 01:29N 41°47' E 140°43'0 0.0
2018-Feb-12 01:01N 41°47' E 140°43'2 4.3
2018-Feb-12 00:30N 41°46' E 140°41'1 1.5
2018-Feb-11 23:59N 41°46' E 140°41'0 0.0
2018-Feb-11 23:08N 41°46' E 140°41'0 0.2
2018-Feb-11 22:59N 41°46' E 140°41'0 0.0
2018-Feb-11 22:28N 41°46' E 140°41'0 0.0
2018-Feb-11 21:58N 41°46' E 140°41'0 0.0
2018-Feb-11 21:28N 41°46' E 140°41'0 0.0
2018-Feb-11 20:58N 41°46' E 140°41'0 0.0
2018-Feb-11 20:22N 41°46' E 140°41'0 0.2
2018-Feb-11 19:58N 41°46' E 140°41'3 6.2
2018-Feb-11 19:30N 41°48' E 140°39'0 0.1
2018-Feb-11 19:00N 41°48' E 140°39'0 0.0
2018-Feb-11 18:30N 41°48' E 140°39'  
Track history (hours):
 
Tides and Currents Weather Stations Pressure Air Temp Water Temp Dewpoint Dewpoint Depression Visibility Wind Speed Wind Dir Waves Ship Positions

Keiyumaru

Last reported at 2018-Feb-21 18:26 UTC. Time now 2018-Feb-21 19:10 UTC.
Position N 33°52' E 134°51'.

Length 81 m; draft 4.8 m.

Type: Cargo ship. MMSI: 431500561.

Date/timePositionNaut miles runAvg speedWind from/ knotsBaromVisibWave heightAir tempDewpointWater temp
2018-Feb-21 18:26N 33°52' E 134°51'613.0
2018-Feb-21 17:59N 33°57' E 134°53'511.0
2018-Feb-21 17:30N 34°02' E 134°55'612.6
2018-Feb-21 17:01N 34°08' E 134°57'612.4
2018-Feb-21 16:31N 34°14' E 134°58'611.1
2018-Feb-21 16:01N 34°20' E 134°59'612.1
2018-Feb-21 15:30N 34°26' E 135°00'611.8
2018-Feb-21 15:01N 34°31' E 135°02'5 9.8
2018-Feb-21 14:30N 34°36' E 135°02'4 9.0
2018-Feb-21 14:00N 34°36' E 134°57'510.8
2018-Feb-21 13:30N 34°34' E 134°51'611.6
2018-Feb-21 13:01N 34°32' E 134°45'611.8
2018-Feb-21 12:30N 34°29' E 134°38'612.0
2018-Feb-21 12:00N 34°27' E 134°31'611.9
2018-Feb-21 11:31N 34°25' E 134°25'611.4
2018-Feb-21 11:00N 34°24' E 134°18'13 0.5
2018-Feb-20 11:09N 34°27' E 134°03'1712.1
2018-Feb-20 09:44N 34°23' E 134°23'312.2
2018-Feb-20 09:30N 34°22' E 134°26'612.2
2018-Feb-20 09:00N 34°19' E 134°33'612.7
2018-Feb-20 08:30N 34°15' E 134°39'6 9.7
2018-Feb-20 07:54N 34°10' E 134°43'511.9
2018-Feb-20 07:30N 34°06' E 134°46'612.1
2018-Feb-20 07:00N 34°01' E 134°49'612.0
2018-Feb-20 06:29N 33°56' E 134°54'612.1
2018-Feb-20 06:00N 33°51' E 134°58'611.8
2018-Feb-20 05:30N 33°47' E 135°04'86 9.8
2018-Feb-19 20:45N 34°08' E 136°44'7312.0
2018-Feb-19 14:41N 34°34' E 138°06'711.0
2018-Feb-19 14:04N 34°33' E 138°15'211.5
2018-Feb-19 13:54N 34°34' E 138°17'511.6
2018-Feb-19 13:27N 34°34' E 138°23'611.8
2018-Feb-19 12:57N 34°35' E 138°30'611.5
2018-Feb-19 12:27N 34°36' E 138°37'611.9
2018-Feb-19 11:58N 34°36' E 138°44'811.5
2018-Feb-19 11:16N 34°36' E 138°54'311.7
2018-Feb-19 11:00N 34°37' E 138°58'613.1
2018-Feb-19 10:30N 34°41' E 139°03'814.0
2018-Feb-19 09:56N 34°48' E 139°08'512.9
2018-Feb-19 09:30N 34°52' E 139°13'612.4
2018-Feb-19 09:00N 34°55' E 139°19'712.3
2018-Feb-19 08:25N 34°59' E 139°27'512.0
2018-Feb-19 08:00N 35°02' E 139°32'612.2
2018-Feb-19 07:30N 35°05' E 139°38'612.7
2018-Feb-19 07:00N 35°10' E 139°44'611.8
2018-Feb-19 06:30N 35°15' E 139°46'611.8
2018-Feb-19 06:00N 35°20' E 139°42'611.1
2018-Feb-19 05:30N 35°25' E 139°44'612.6
2018-Feb-19 05:00N 35°29' E 139°50'612.0
2018-Feb-19 04:29N 35°35' E 139°50'3 5.3
2018-Feb-19 04:00N 35°37' E 139°48'0 0.0
2018-Feb-19 03:30N 35°37' E 139°48'0 0.0
2018-Feb-19 02:54N 35°37' E 139°48'0 0.0
2018-Feb-19 02:30N 35°37' E 139°48'0 0.0
2018-Feb-19 02:00N 35°37' E 139°48'0 0.0
2018-Feb-19 01:30N 35°37' E 139°48'0 0.0
2018-Feb-19 01:00N 35°37' E 139°48'0 0.0
2018-Feb-19 00:24N 35°37' E 139°48'0 0.0
2018-Feb-18 23:57N 35°37' E 139°48'0 0.0
2018-Feb-18 23:24N 35°37' E 139°48'0 0.0
2018-Feb-18 23:00N 35°37' E 139°48'0 0.0
2018-Feb-18 22:27N 35°37' E 139°48'0 0.0
2018-Feb-18 22:00N 35°37' E 139°48'4 6.8
2018-Feb-18 21:29N 35°35' E 139°52'0 0.6
2018-Feb-18 20:59N 35°35' E 139°52'0 0.0
2018-Feb-18 20:29N 35°35' E 139°52'0 0.0
2018-Feb-18 19:59N 35°35' E 139°52'0 0.0
2018-Feb-18 19:29N 35°35' E 139°52'0 0.0
2018-Feb-18 18:56N 35°35' E 139°52'0 0.0
2018-Feb-18 18:26N 35°35' E 139°52'0 0.0
2018-Feb-18 17:59N 35°35' E 139°52'0 0.0
2018-Feb-18 17:29N 35°35' E 139°52'0 0.1
2018-Feb-18 16:59N 35°35' E 139°52'0 0.0
2018-Feb-18 16:29N 35°35' E 139°52'0 0.0
2018-Feb-18 15:59N 35°35' E 139°52'0 0.0
2018-Feb-18 15:29N 35°35' E 139°52'0 0.0
2018-Feb-18 14:59N 35°35' E 139°52'0 0.0
2018-Feb-18 14:29N 35°35' E 139°52'0 0.0
2018-Feb-18 13:59N 35°35' E 139°52'0 0.0
2018-Feb-18 13:29N 35°35' E 139°52'0 0.0
2018-Feb-18 12:59N 35°35' E 139°52'0 0.0
2018-Feb-18 12:29N 35°35' E 139°52'0 0.0
2018-Feb-18 11:59N 35°35' E 139°52'0 0.0
2018-Feb-18 11:29N 35°35' E 139°52'0 0.0
2018-Feb-18 10:59N 35°35' E 139°52'0 0.0
2018-Feb-18 10:29N 35°35' E 139°52'0 0.1
2018-Feb-18 09:59N 35°35' E 139°52'0 0.0
2018-Feb-18 09:29N 35°35' E 139°52'0 0.1
2018-Feb-18 08:59N 35°35' E 139°52'0 0.0
2018-Feb-18 08:29N 35°35' E 139°52'0 0.0
2018-Feb-18 07:56N 35°35' E 139°52'0 0.0
2018-Feb-18 07:29N 35°35' E 139°52'0 0.0
2018-Feb-18 06:59N 35°35' E 139°52'0 0.0
2018-Feb-18 06:28N 35°35' E 139°52'0 0.0
2018-Feb-18 05:58N 35°35' E 139°52'0 0.0
2018-Feb-18 05:26N 35°35' E 139°52'0 0.0
2018-Feb-18 04:58N 35°35' E 139°52'0 0.0
2018-Feb-18 04:28N 35°35' E 139°52'0 0.0
2018-Feb-18 03:58N 35°35' E 139°52'0 0.0
2018-Feb-18 03:28N 35°35' E 139°52'0 0.0
2018-Feb-18 02:55N 35°35' E 139°52'0 0.0
2018-Feb-18 02:28N 35°35' E 139°52'0 0.0
2018-Feb-18 01:55N 35°35' E 139°52'0 0.0
2018-Feb-18 01:28N 35°35' E 139°52'0 0.0
2018-Feb-18 00:58N 35°35' E 139°52'0 0.0
2018-Feb-18 00:25N 35°35' E 139°52'0 0.0
2018-Feb-17 23:58N 35°35' E 139°52'0 0.0
2018-Feb-17 23:28N 35°35' E 139°52'0 0.0
2018-Feb-17 22:58N 35°35' E 139°52'0 0.0
2018-Feb-17 22:28N 35°35' E 139°52'0 0.0
2018-Feb-17 21:58N 35°35' E 139°52'0 0.0
2018-Feb-17 21:28N 35°35' E 139°52'0 0.0
2018-Feb-17 20:58N 35°35' E 139°52'0 0.0
2018-Feb-17 20:28N 35°35' E 139°52'0 0.0
2018-Feb-17 19:55N 35°35' E 139°52'0 0.0
2018-Feb-17 19:28N 35°35' E 139°52'0 0.0
2018-Feb-17 18:58N 35°35' E 139°52'0 0.0
2018-Feb-17 18:28N 35°35' E 139°52'0 0.0
2018-Feb-17 17:55N 35°35' E 139°52'0 0.0
2018-Feb-17 17:28N 35°35' E 139°52'0 0.0
2018-Feb-17 16:58N 35°35' E 139°52'0 0.0
2018-Feb-17 16:28N 35°35' E 139°52'0 0.1
2018-Feb-17 15:58N 35°35' E 139°52'0 0.0
2018-Feb-17 15:28N 35°35' E 139°52'0 0.1
2018-Feb-17 14:58N 35°35' E 139°52'0 0.0
2018-Feb-17 14:28N 35°35' E 139°52'0 0.1
2018-Feb-17 13:55N 35°35' E 139°52'0 0.0
2018-Feb-17 13:28N 35°35' E 139°52'0 0.1
2018-Feb-17 12:58N 35°35' E 139°52'0 0.0
2018-Feb-17 12:28N 35°35' E 139°52'0 0.0
2018-Feb-17 11:58N 35°35' E 139°52'0 0.0
2018-Feb-17 11:28N 35°35' E 139°52'0 0.0
2018-Feb-17 10:58N 35°35' E 139°52'0 0.1
2018-Feb-17 10:28N 35°35' E 139°52'0 0.1
2018-Feb-17 09:58N 35°35' E 139°52'0 0.1
2018-Feb-17 09:25N 35°35' E 139°52'0 0.1
2018-Feb-17 08:46N 35°35' E 139°52'0 0.0
2018-Feb-17 08:28N 35°35' E 139°52'0 0.0
2018-Feb-17 07:58N 35°35' E 139°52'0 0.0
2018-Feb-17 07:28N 35°35' E 139°52'0 0.0
2018-Feb-17 06:52N 35°35' E 139°52'0 0.0
2018-Feb-17 06:22N 35°35' E 139°52'0 0.0
2018-Feb-17 05:58N 35°35' E 139°52'0 0.1
2018-Feb-17 05:28N 35°35' E 139°52'0 0.1
2018-Feb-17 04:52N 35°35' E 139°52'0 0.1
2018-Feb-17 04:28N 35°35' E 139°52'0 0.1
2018-Feb-17 03:58N 35°35' E 139°52'0 0.2
2018-Feb-17 03:28N 35°35' E 139°52'2 5.2
2018-Feb-17 03:00N 35°33' E 139°53'612.5
2018-Feb-17 02:31N 35°27' E 139°51'611.3
2018-Feb-17 02:00N 35°22' E 139°53'0 0.8
2018-Feb-17 01:25N 35°21' E 139°54'0 0.0
2018-Feb-17 00:55N 35°21' E 139°54'0 0.0
2018-Feb-17 00:28N 35°21' E 139°54'0 0.0
2018-Feb-16 23:55N 35°21' E 139°54'0 0.0
2018-Feb-16 23:25N 35°21' E 139°54'0 0.0
2018-Feb-16 22:55N 35°21' E 139°54'0 0.0
2018-Feb-16 22:27N 35°21' E 139°54'2 4.0
2018-Feb-16 22:00N 35°22' E 139°52'2 4.3
2018-Feb-16 21:28N 35°24' E 139°50'0 0.0
2018-Feb-16 20:58N 35°24' E 139°50'0 0.0
2018-Feb-16 20:28N 35°24' E 139°50'0 0.0
2018-Feb-16 19:58N 35°24' E 139°50'0 0.0
2018-Feb-16 19:25N 35°24' E 139°50'0 0.0
2018-Feb-16 18:58N 35°24' E 139°50'0 0.0
2018-Feb-16 18:28N 35°24' E 139°50'0 0.0
2018-Feb-16 17:58N 35°24' E 139°50'0 0.0
2018-Feb-16 17:28N 35°24' E 139°50'0 0.0
2018-Feb-16 16:58N 35°24' E 139°50'0 0.0
2018-Feb-16 16:25N 35°24' E 139°50'0 0.0
2018-Feb-16 15:58N 35°24' E 139°50'0 0.0
2018-Feb-16 15:28N 35°24' E 139°50'0 0.0
2018-Feb-16 14:58N 35°24' E 139°50'0 0.0
2018-Feb-16 14:28N 35°24' E 139°50'0 0.0
2018-Feb-16 13:55N 35°24' E 139°50'0 0.0
2018-Feb-16 13:28N 35°24' E 139°50'0 0.1
2018-Feb-16 12:58N 35°24' E 139°50'0 0.0
2018-Feb-16 12:28N 35°24' E 139°50'0 0.0
2018-Feb-16 11:58N 35°24' E 139°50'0 0.0
2018-Feb-16 11:28N 35°24' E 139°50'0 0.0
2018-Feb-16 10:58N 35°24' E 139°50'0 0.0
2018-Feb-16 10:28N 35°24' E 139°50'0 0.0
2018-Feb-16 09:58N 35°24' E 139°50'0 0.0
2018-Feb-16 09:28N 35°24' E 139°50'0 0.0
2018-Feb-16 08:58N 35°24' E 139°50'0 0.0
2018-Feb-16 08:28N 35°24' E 139°50'0 0.0
2018-Feb-16 07:52N 35°24' E 139°50'0 0.0
2018-Feb-16 07:28N 35°24' E 139°50'0 0.0
2018-Feb-16 06:58N 35°24' E 139°50'0 0.0
2018-Feb-16 06:28N 35°24' E 139°50'0 0.0
2018-Feb-16 05:58N 35°24' E 139°50'0 0.0
2018-Feb-16 05:25N 35°24' E 139°50'0 0.0
2018-Feb-16 04:55N 35°24' E 139°50'0 0.1
2018-Feb-16 04:28N 35°24' E 139°50'0 0.0
2018-Feb-16 03:58N 35°24' E 139°50'0 0.0
2018-Feb-16 03:28N 35°24' E 139°50'0 0.0
2018-Feb-16 02:58N 35°24' E 139°50'0 0.0
2018-Feb-16 02:28N 35°24' E 139°50'2 4.6
2018-Feb-16 02:00N 35°24' E 139°48'611.1
2018-Feb-16 01:30N 35°19' E 139°44'611.2
2018-Feb-16 01:00N 35°14' E 139°47'611.4
2018-Feb-16 00:30N 35°08' E 139°47'611.6
2018-Feb-16 00:00N 35°02' E 139°45'810.6
2018-Feb-15 23:13N 34°54' E 139°46'310.7
2018-Feb-15 22:58N 34°53' E 139°49'1112.7
2018-Feb-15 22:06N 34°55' E 140°02'412.5
2018-Feb-15 21:48N 34°57' E 140°06'39511.2
2018-Feb-14 10:24N 41°27' E 141°30'512.2
2018-Feb-14 10:00N 41°31' E 141°27'612.1
2018-Feb-14 09:29N 41°36' E 141°23'611.4
2018-Feb-14 09:00N 41°41' E 141°19'612.0
2018-Feb-14 08:30N 41°46' E 141°15'5 0.1
2018-Feb-12 21:40N 41°50' E 141°12'311.7
2018-Feb-12 21:27N 41°47' E 141°13'511.6
2018-Feb-12 21:00N 41°44' E 141°08'611.5
2018-Feb-12 20:31N 41°41' E 141°01'713.8
2018-Feb-12 20:00N 41°42' E 140°52'612.6
2018-Feb-12 19:30N 41°43' E 140°44'611.2
2018-Feb-12 19:01N 41°48' E 140°39'0 0.7
2018-Feb-12 18:28N 41°48' E 140°39'0 0.0
2018-Feb-12 17:58N 41°48' E 140°39'0 0.0
2018-Feb-12 17:28N 41°48' E 140°39'0 0.0
2018-Feb-12 16:58N 41°48' E 140°39'0 0.0
2018-Feb-12 16:25N 41°48' E 140°39'0 0.0
2018-Feb-12 15:55N 41°48' E 140°39'0 0.0
2018-Feb-12 15:16N 41°48' E 140°39'0 0.0
2018-Feb-12 14:58N 41°48' E 140°39'0 0.0
2018-Feb-12 14:28N 41°48' E 140°39'0 0.0
2018-Feb-12 13:52N 41°48' E 140°39'0 0.0
2018-Feb-12 13:25N 41°48' E 140°39'0 0.0
2018-Feb-12 12:58N 41°48' E 140°39'0 0.0
2018-Feb-12 12:28N 41°48' E 140°39'0 0.0
2018-Feb-12 11:58N 41°48' E 140°39'0 0.0
2018-Feb-12 11:28N 41°48' E 140°39'0 0.0
2018-Feb-12 11:00N 41°48' E 140°39'2 4.9
2018-Feb-12 10:30N 41°48' E 140°42'1 2.2
2018-Feb-12 09:59N 41°47' E 140°43'0 0.0
2018-Feb-12 09:29N 41°47' E 140°43'0 0.0
2018-Feb-12 08:59N 41°47' E 140°43'0 0.0
2018-Feb-12 08:29N 41°47' E 140°43'0 0.0
2018-Feb-12 07:59N 41°47' E 140°43'0 0.0
2018-Feb-12 07:29N 41°47' E 140°43'0 0.0
2018-Feb-12 06:59N 41°47' E 140°43'0 0.0
2018-Feb-12 06:29N 41°47' E 140°43'0 0.0
2018-Feb-12 05:59N 41°47' E 140°43'0 0.0
2018-Feb-12 05:29N 41°47' E 140°43'0 0.0
2018-Feb-12 04:59N 41°47' E 140°43'0 0.0
2018-Feb-12 04:29N 41°47' E 140°43'0 0.0
2018-Feb-12 03:59N 41°47' E 140°43'0 0.0
2018-Feb-12 03:26N 41°47' E 140°43'0 0.0
2018-Feb-12 02:59N 41°47' E 140°43'0 0.0
2018-Feb-12 02:29N 41°47' E 140°43'0 0.0
2018-Feb-12 01:56N 41°47' E 140°43'0 0.0
2018-Feb-12 01:29N 41°47' E 140°43'0 0.0
2018-Feb-12 01:01N 41°47' E 140°43'2 4.3
2018-Feb-12 00:30N 41°46' E 140°41'1 1.5
2018-Feb-11 23:59N 41°46' E 140°41'0 0.0
2018-Feb-11 23:08N 41°46' E 140°41'0 0.2
2018-Feb-11 22:59N 41°46' E 140°41'0 0.0
2018-Feb-11 22:28N 41°46' E 140°41'0 0.0
2018-Feb-11 21:58N 41°46' E 140°41'0 0.0
2018-Feb-11 21:28N 41°46' E 140°41'0 0.0
2018-Feb-11 20:58N 41°46' E 140°41'0 0.0
2018-Feb-11 20:22N 41°46' E 140°41'0 0.2
2018-Feb-11 19:58N 41°46' E 140°41'3 6.2
2018-Feb-11 19:30N 41°48' E 140°39'0 0.1
2018-Feb-11 19:00N 41°48' E 140°39'0 0.0
2018-Feb-11 18:30N 41°48' E 140°39'  

Dump ship's entire track history